createdAt,value
2018-11-01T00:00:21.365Z,99.90
2018-11-01T00:02:57.053Z,99.90
2018-11-01T00:05:32.815Z,99.90
2018-11-01T00:08:08.426Z,99.90
2018-11-01T00:10:44.134Z,99.90
2018-11-01T00:13:19.836Z,99.90
2018-11-01T00:15:55.632Z,99.90
2018-11-01T00:18:31.153Z,99.90
2018-11-01T00:21:07.745Z,99.90
2018-11-01T00:23:43.521Z,99.90
2018-11-01T00:26:19.071Z,99.90
2018-11-01T00:28:55.005Z,99.90
2018-11-01T00:31:30.859Z,99.90
2018-11-01T00:34:06.287Z,99.90
2018-11-01T00:36:41.912Z,99.90
2018-11-01T00:39:17.337Z,99.90
2018-11-01T00:41:53.109Z,99.90
2018-11-01T00:44:28.698Z,99.90
2018-11-01T00:47:04.371Z,99.90
2018-11-01T00:49:39.890Z,99.90
2018-11-01T00:52:15.586Z,99.90
2018-11-01T00:54:51.229Z,99.90
2018-11-01T00:57:26.929Z,99.90
2018-11-01T01:00:02.395Z,99.90
2018-11-01T01:02:39.308Z,99.90
2018-11-01T01:05:16.812Z,99.90
2018-11-01T01:07:53.316Z,99.90
2018-11-01T01:10:28.937Z,99.90
2018-11-01T01:13:06.745Z,99.90
2018-11-01T01:15:42.305Z,99.90
2018-11-01T01:18:17.884Z,99.90
2018-11-01T01:20:53.552Z,99.90
2018-11-01T01:23:29.075Z,99.90
2018-11-01T01:26:04.964Z,99.90
2018-11-01T01:28:40.571Z,99.90
2018-11-01T01:31:16.261Z,99.90
2018-11-01T01:33:51.610Z,99.90
2018-11-01T01:36:27.473Z,99.90
2018-11-01T01:39:02.973Z,99.90
2018-11-01T01:41:38.889Z,99.90
2018-11-01T01:44:15.277Z,99.90
2018-11-01T01:46:51.202Z,99.90
2018-11-01T01:49:26.839Z,99.90
2018-11-01T01:52:02.021Z,99.90
2018-11-01T01:54:37.786Z,99.90
2018-11-01T01:57:13.248Z,99.90
2018-11-01T01:59:49.028Z,99.90
2018-11-01T02:02:24.558Z,99.90
2018-11-01T02:05:00.781Z,99.90
2018-11-01T02:07:36.725Z,99.90
2018-11-01T02:10:14.664Z,99.90
2018-11-01T02:12:50.346Z,99.90
2018-11-01T02:15:27.207Z,99.90
2018-11-01T02:18:03.885Z,99.90
2018-11-01T02:20:39.508Z,99.90
2018-11-01T02:23:15.023Z,99.90
2018-11-01T02:25:50.564Z,99.90
2018-11-01T02:28:26.472Z,99.90
2018-11-01T02:31:01.982Z,99.90
2018-11-01T02:33:37.769Z,99.90
2018-11-01T02:36:13.126Z,99.90
2018-11-01T02:38:48.979Z,99.90
2018-11-01T02:41:24.689Z,99.90
2018-11-01T02:44:00.187Z,99.90
2018-11-01T02:46:35.435Z,99.90
2018-11-01T02:49:11.548Z,99.90
2018-11-01T02:51:47.138Z,99.90
2018-11-01T02:54:23.053Z,99.90
2018-11-01T02:56:58.608Z,99.90
2018-11-01T02:59:33.811Z,99.90
2018-11-01T03:02:09.545Z,99.90
2018-11-01T03:04:45.219Z,99.90
2018-11-01T03:07:20.796Z,99.90
2018-11-01T03:09:56.650Z,99.90
2018-11-01T03:12:32.294Z,99.90
2018-11-01T03:15:09.201Z,99.90
2018-11-01T03:17:44.617Z,99.90
2018-11-01T03:20:20.284Z,99.90
2018-11-01T03:22:55.913Z,99.90
2018-11-01T03:25:31.617Z,99.90
2018-11-01T03:28:07.508Z,99.90
2018-11-01T03:30:43.129Z,99.90
2018-11-01T03:33:18.639Z,99.90
2018-11-01T03:35:54.262Z,99.90
2018-11-01T03:38:29.902Z,99.90
2018-11-01T03:41:05.973Z,99.90
2018-11-01T03:43:41.348Z,99.90
2018-11-01T03:46:17.065Z,99.90
2018-11-01T03:48:52.644Z,99.90
2018-11-01T03:51:28.617Z,99.90
2018-11-01T03:54:03.848Z,99.90
2018-11-01T03:56:39.273Z,99.90
2018-11-01T03:59:16.120Z,99.90
2018-11-01T04:01:51.957Z,99.90
2018-11-01T04:04:28.437Z,99.90
2018-11-01T04:07:04.284Z,99.90
2018-11-01T04:09:39.928Z,99.90
2018-11-01T04:12:15.609Z,99.90
2018-11-01T04:14:51.367Z,99.90
2018-11-01T04:17:27.026Z,99.90
2018-11-01T04:20:02.989Z,99.90
2018-11-01T04:22:39.360Z,99.90
2018-11-01T04:25:15.008Z,99.90
2018-11-01T04:27:50.502Z,99.90
2018-11-01T04:30:26.863Z,99.90
2018-11-01T04:33:02.793Z,99.90
2018-11-01T04:35:38.694Z,99.90
2018-11-01T04:38:14.319Z,99.90
2018-11-01T04:40:50.121Z,99.90
2018-11-01T04:43:26.013Z,99.90
2018-11-01T04:46:01.508Z,99.90
2018-11-01T04:48:37.305Z,99.90
2018-11-01T04:51:12.812Z,99.90
2018-11-01T04:53:48.461Z,99.90
2018-11-01T04:56:23.780Z,99.90
2018-11-01T04:59:00.170Z,99.90
2018-11-01T05:01:36.332Z,99.90
2018-11-01T05:04:11.832Z,99.90
2018-11-01T05:06:47.670Z,99.90
2018-11-01T05:09:23.353Z,99.90
2018-11-01T05:11:59.169Z,99.90
2018-11-01T05:14:34.558Z,99.90
2018-11-01T05:17:10.311Z,99.90
2018-11-01T05:19:46.125Z,99.90
2018-11-01T05:22:21.591Z,99.90
2018-11-01T05:24:57.416Z,99.90
2018-11-01T05:27:32.849Z,99.90
2018-11-01T05:30:10.219Z,99.90
2018-11-01T05:32:46.172Z,99.90
2018-11-01T05:35:21.842Z,99.90
2018-11-01T05:37:57.201Z,99.90
2018-11-01T05:40:32.963Z,99.90
2018-11-01T05:43:08.492Z,99.90
2018-11-01T05:45:44.249Z,99.90
2018-11-01T05:48:20.516Z,99.90
2018-11-01T05:50:57.180Z,99.90
2018-11-01T05:53:33.111Z,99.90
2018-11-01T05:56:09.459Z,99.90
2018-11-01T05:58:46.036Z,99.90
2018-11-01T06:01:27.233Z,99.90
2018-11-01T06:04:03.958Z,99.90
2018-11-01T06:06:39.984Z,99.90
2018-11-01T06:09:20.669Z,99.90
2018-11-01T06:11:56.172Z,99.90
2018-11-01T06:14:31.450Z,99.90
2018-11-01T06:17:06.981Z,99.90
2018-11-01T06:19:42.561Z,99.90
2018-11-01T06:22:18.496Z,99.90
2018-11-01T06:24:53.964Z,99.90
2018-11-01T06:27:29.808Z,99.90
2018-11-01T06:30:07.870Z,99.90
2018-11-01T06:32:44.057Z,99.90
2018-11-01T06:35:27.151Z,99.90
2018-11-01T06:38:02.498Z,99.90
2018-11-01T06:40:37.997Z,99.90
2018-11-01T06:43:14.927Z,99.90
2018-11-01T06:45:50.872Z,99.90
2018-11-01T06:48:26.290Z,99.90
2018-11-01T06:51:02.101Z,99.90
2018-11-01T06:53:37.857Z,99.90
2018-11-01T06:56:13.503Z,99.90
2018-11-01T06:58:49.815Z,99.90
2018-11-01T07:01:25.923Z,99.90
2018-11-01T07:04:01.677Z,99.90
2018-11-01T07:06:37.808Z,99.90
2018-11-01T07:09:14.147Z,99.90
2018-11-01T07:11:50.556Z,99.90
2018-11-01T07:14:26.694Z,99.90
2018-11-01T07:17:02.199Z,99.90
2018-11-01T07:19:39.120Z,99.90
2018-11-01T07:22:14.596Z,99.90
2018-11-01T07:24:50.181Z,99.90
2018-11-01T07:27:26.378Z,99.90
2018-11-01T07:30:01.665Z,99.90
2018-11-01T07:32:37.503Z,99.90
2018-11-01T07:35:13.592Z,99.90
2018-11-01T07:37:50.085Z,99.90
2018-11-01T07:40:26.411Z,99.90
2018-11-01T07:43:01.802Z,99.90
2018-11-01T07:45:37.909Z,99.90
2018-11-01T07:48:13.391Z,99.90
2018-11-01T07:50:49.321Z,99.90
2018-11-01T07:53:25.068Z,99.90
2018-11-01T07:56:00.558Z,99.90
2018-11-01T07:58:36.261Z,99.90
2018-11-01T08:01:12.023Z,99.90
2018-11-01T08:03:47.426Z,99.90
2018-11-01T08:06:23.461Z,99.90
2018-11-01T08:08:58.991Z,99.90
2018-11-01T08:11:34.736Z,99.90
2018-11-01T08:14:10.877Z,99.90
2018-11-01T08:16:46.190Z,99.90
2018-11-01T08:19:21.985Z,99.90
2018-11-01T08:21:57.265Z,99.90
2018-11-01T08:24:33.482Z,99.90
2018-11-01T08:27:08.688Z,99.90
2018-11-01T08:29:44.285Z,99.90
2018-11-01T08:32:19.865Z,99.90
2018-11-01T08:34:55.561Z,99.90
2018-11-01T08:37:31.146Z,99.90
2018-11-01T08:40:07.974Z,99.90
2018-11-01T08:42:43.713Z,99.90
2018-11-01T08:45:19.136Z,99.90
2018-11-01T08:47:54.523Z,99.90
2018-11-01T08:50:30.317Z,99.90
2018-11-01T08:53:05.927Z,99.90
2018-11-01T08:55:41.702Z,99.90
2018-11-01T08:58:17.220Z,99.90
2018-11-01T09:00:52.885Z,99.90
2018-11-01T09:03:28.510Z,99.90
2018-11-01T09:06:03.951Z,99.90
2018-11-01T09:08:39.937Z,99.90
2018-11-01T09:11:15.255Z,99.90
2018-11-01T09:13:51.062Z,99.90
2018-11-01T09:16:26.685Z,99.90
2018-11-01T09:19:02.150Z,99.90
2018-11-01T09:21:37.500Z,99.90
2018-11-01T09:24:13.842Z,99.90
2018-11-01T09:26:50.078Z,99.90
2018-11-01T09:29:25.486Z,99.90
2018-11-01T09:32:01.074Z,99.90
2018-11-01T09:34:36.934Z,99.90
2018-11-01T09:37:12.222Z,99.90
2018-11-01T09:39:48.131Z,99.90
2018-11-01T09:42:23.639Z,99.90
2018-11-01T09:44:59.208Z,99.90
2018-11-01T09:47:34.894Z,99.90
2018-11-01T09:50:11.102Z,99.90
2018-11-01T09:52:46.980Z,99.90
2018-11-01T09:55:22.930Z,99.90
2018-11-01T09:57:58.685Z,99.90
2018-11-01T10:00:34.349Z,99.90
2018-11-01T10:03:09.771Z,99.90
2018-11-01T10:05:45.910Z,99.90
2018-11-01T10:08:21.221Z,99.90
2018-11-01T10:10:56.938Z,99.90
2018-11-01T10:13:32.248Z,99.90
2018-11-01T10:16:08.443Z,99.90
2018-11-01T10:18:43.542Z,99.90
2018-11-01T10:21:19.465Z,99.90
2018-11-01T10:23:55.048Z,99.90
2018-11-01T10:26:30.737Z,99.90
2018-11-01T10:29:06.305Z,99.90
2018-11-01T10:31:41.949Z,99.90
2018-11-01T10:34:17.776Z,99.90
2018-11-01T10:36:53.241Z,99.90
2018-11-01T10:39:28.906Z,99.90
2018-11-01T10:42:04.816Z,99.90
2018-11-01T10:44:41.226Z,99.90
2018-11-01T10:47:16.937Z,99.90
2018-11-01T10:49:52.521Z,99.90
2018-11-01T10:52:27.932Z,99.90
2018-11-01T10:55:03.635Z,99.90
2018-11-01T10:57:39.369Z,99.90
2018-11-01T11:00:20.584Z,99.90
2018-11-01T11:02:56.838Z,99.90
2018-11-01T11:05:32.377Z,99.90
2018-11-01T11:08:08.165Z,99.90
2018-11-01T11:10:43.718Z,99.90
2018-11-01T11:13:19.740Z,99.90
2018-11-01T11:15:55.172Z,99.90
2018-11-01T11:18:30.604Z,99.90
2018-11-01T11:21:06.467Z,99.90
2018-11-01T11:23:41.968Z,99.90
2018-11-01T11:26:18.303Z,99.90
2018-11-01T11:28:53.923Z,99.90
2018-11-01T11:31:29.713Z,99.90
2018-11-01T11:34:05.245Z,99.90
2018-11-01T11:36:40.845Z,99.90
2018-11-01T11:39:16.645Z,99.90
2018-11-01T11:41:52.132Z,99.90
2018-11-01T11:44:27.774Z,99.90
2018-11-01T11:47:03.516Z,99.90
2018-11-01T11:49:39.421Z,99.90
2018-11-01T11:52:15.245Z,99.90
2018-11-01T11:54:50.517Z,99.90
2018-11-01T11:57:26.366Z,99.90
2018-11-01T12:00:01.818Z,99.90
2018-11-01T12:02:37.450Z,99.90
2018-11-01T12:05:13.496Z,99.90
2018-11-01T12:07:49.016Z,99.90
2018-11-01T12:10:24.608Z,99.90
2018-11-01T12:13:00.437Z,99.90
2018-11-01T12:15:35.909Z,99.90
2018-11-01T12:18:11.817Z,99.90
2018-11-01T12:20:47.611Z,99.90
2018-11-01T12:23:23.449Z,99.90
2018-11-01T12:25:59.725Z,99.90
2018-11-01T12:28:35.301Z,99.90
2018-11-01T12:31:10.962Z,99.90
2018-11-01T12:33:46.717Z,99.90
2018-11-01T12:36:22.429Z,99.90
2018-11-01T12:38:58.169Z,99.90
2018-11-01T12:41:33.755Z,99.90
2018-11-01T12:44:09.550Z,99.90
2018-11-01T12:46:45.971Z,99.90
2018-11-01T12:49:21.889Z,99.90
2018-11-01T12:51:57.721Z,99.90
2018-11-01T12:54:33.037Z,99.90
2018-11-01T12:57:08.688Z,99.90
2018-11-01T12:59:44.272Z,99.90
2018-11-01T13:02:20.241Z,99.90
2018-11-01T13:04:56.395Z,99.90
2018-11-01T13:07:32.534Z,99.90
2018-11-01T13:10:08.269Z,99.90
2018-11-01T13:12:43.782Z,99.90
2018-11-01T13:15:19.533Z,99.90
2018-11-01T13:17:55.197Z,99.90
2018-11-01T13:20:30.999Z,99.90
2018-11-01T13:23:06.657Z,99.90
2018-11-01T13:25:42.416Z,99.90
2018-11-01T13:28:17.989Z,99.90
2018-11-01T13:30:53.504Z,99.90
2018-11-01T13:33:28.981Z,98.10
2018-11-01T13:36:04.966Z,98.20
2018-11-01T13:38:40.317Z,99.40
2018-11-01T13:41:16.096Z,99.10
2018-11-01T13:43:51.547Z,99.80
2018-11-01T13:46:27.199Z,99.20
2018-11-01T13:49:02.777Z,99.30
2018-11-01T13:51:38.815Z,99.10
2018-11-01T13:54:15.073Z,98.80
2018-11-01T13:56:51.210Z,99.60
2018-11-01T13:59:26.865Z,99.90
2018-11-01T14:02:02.747Z,99.90
2018-11-01T14:04:38.526Z,99.90
2018-11-01T14:07:14.132Z,99.90
2018-11-01T14:09:49.337Z,99.90
2018-11-01T14:12:25.155Z,99.90
2018-11-01T14:15:01.220Z,99.90
2018-11-01T14:17:36.957Z,99.90
2018-11-01T14:20:13.322Z,99.90
2018-11-01T14:22:49.323Z,99.90
2018-11-01T14:25:25.172Z,99.90
2018-11-01T14:28:01.394Z,99.90
2018-11-01T14:30:38.291Z,99.90
2018-11-01T14:33:14.975Z,99.90
2018-11-01T14:35:50.661Z,99.90
2018-11-01T14:38:26.172Z,99.90
2018-11-01T14:41:02.934Z,99.90
2018-11-01T14:43:38.859Z,99.90
2018-11-01T14:46:14.440Z,99.90
2018-11-01T14:48:50.163Z,99.90
2018-11-01T14:51:26.673Z,99.90
2018-11-01T14:54:02.837Z,99.90
2018-11-01T14:56:39.289Z,99.90
2018-11-01T14:59:14.836Z,99.90
2018-11-01T15:01:49.456Z,99.90
2018-11-01T15:04:25.189Z,99.90
2018-11-01T15:07:01.086Z,99.90
2018-11-01T15:09:36.764Z,99.90
2018-11-01T15:12:12.414Z,99.90
2018-11-01T15:14:47.918Z,99.90
2018-11-01T15:17:23.696Z,99.90
2018-11-01T15:19:58.987Z,99.90
2018-11-01T15:22:34.614Z,99.90
2018-11-01T15:25:11.264Z,99.90
2018-11-01T15:27:46.975Z,99.90
2018-11-01T15:30:22.791Z,99.90
2018-11-01T15:32:58.538Z,99.90
2018-11-01T15:35:34.673Z,99.90
2018-11-01T15:38:10.793Z,99.90
2018-11-01T15:40:50.216Z,99.90
2018-11-01T15:43:26.519Z,99.90
2018-11-01T15:46:02.139Z,99.90
2018-11-01T15:48:37.660Z,99.90
2018-11-01T15:51:13.286Z,99.90
2018-11-01T15:53:48.691Z,99.90
2018-11-01T15:56:24.668Z,99.90
2018-11-01T15:59:00.010Z,99.90
2018-11-01T16:01:35.957Z,99.90
2018-11-01T16:04:12.586Z,99.90
2018-11-01T16:06:48.370Z,99.90
2018-11-01T16:09:23.911Z,99.90
2018-11-01T16:11:59.314Z,99.90
2018-11-01T16:14:34.918Z,99.90
2018-11-01T16:17:10.528Z,99.90
2018-11-01T16:19:46.327Z,99.90
2018-11-01T16:22:21.894Z,99.90
2018-11-01T16:24:57.617Z,99.90
2018-11-01T16:27:33.392Z,99.90
2018-11-01T16:30:09.215Z,99.90
2018-11-01T16:32:44.714Z,99.90
2018-11-01T16:35:20.573Z,99.90
2018-11-01T16:37:55.970Z,99.90
2018-11-01T16:40:31.854Z,99.90
2018-11-01T16:43:07.208Z,99.90
2018-11-01T16:45:42.722Z,99.90
2018-11-01T16:48:18.637Z,99.90
2018-11-01T16:50:54.201Z,99.90
2018-11-01T16:53:30.121Z,99.90
2018-11-01T16:56:06.087Z,99.90
2018-11-01T16:58:42.426Z,99.90
2018-11-01T17:01:17.878Z,99.90
2018-11-01T17:03:53.510Z,99.90
2018-11-01T17:06:29.502Z,99.90
2018-11-01T17:09:07.578Z,99.90
2018-11-01T17:11:43.173Z,99.90
2018-11-01T17:14:19.144Z,99.90
2018-11-01T17:16:54.697Z,99.90
2018-11-01T17:19:30.313Z,99.90
2018-11-01T17:22:06.030Z,99.90
2018-11-01T17:24:41.903Z,99.90
2018-11-01T17:27:17.611Z,99.90
2018-11-01T17:29:53.024Z,99.90
2018-11-01T17:32:28.582Z,99.90
2018-11-01T17:35:04.245Z,99.90
2018-11-01T17:37:40.020Z,99.90
2018-11-01T17:40:15.700Z,99.90
2018-11-01T17:42:51.104Z,99.90
2018-11-01T17:45:26.963Z,99.90
2018-11-01T17:48:02.074Z,99.90
2018-11-01T17:50:38.271Z,99.90
2018-11-01T17:53:13.901Z,99.90
2018-11-01T17:55:49.785Z,99.90
2018-11-01T17:58:25.636Z,99.90
2018-11-01T18:01:01.928Z,99.90
2018-11-01T18:03:37.686Z,99.90
2018-11-01T18:06:14.048Z,99.90
2018-11-01T18:08:50.118Z,99.90
2018-11-01T18:11:25.927Z,99.90
2018-11-01T18:14:02.446Z,99.90
2018-11-01T18:16:38.981Z,99.90
2018-11-01T18:19:15.225Z,99.90
2018-11-01T18:21:50.531Z,99.90
2018-11-01T18:24:26.242Z,99.90
2018-11-01T18:27:01.723Z,99.90
2018-11-01T18:29:37.485Z,99.90
2018-11-01T18:32:13.462Z,99.90
2018-11-01T18:34:48.743Z,99.90
2018-11-01T18:37:24.942Z,99.90
2018-11-01T18:40:01.322Z,99.90
2018-11-01T18:42:37.273Z,99.90
2018-11-01T18:45:14.286Z,99.90
2018-11-01T18:47:50.281Z,99.90
2018-11-01T18:50:25.975Z,99.90
2018-11-01T18:53:01.562Z,99.90
2018-11-01T18:55:37.256Z,99.90
2018-11-01T18:58:13.101Z,99.90
2018-11-01T19:00:48.673Z,99.90
2018-11-01T19:03:29.825Z,99.90
2018-11-01T19:06:05.985Z,99.90
2018-11-01T19:08:41.951Z,99.90
2018-11-01T19:11:17.732Z,99.90
2018-11-01T19:13:53.488Z,99.90
2018-11-01T19:16:28.829Z,99.90
2018-11-01T19:19:04.442Z,99.90
2018-11-01T19:21:40.395Z,99.90
2018-11-01T19:24:15.881Z,99.90
2018-11-01T19:26:51.532Z,99.90
2018-11-01T19:29:27.545Z,99.90
2018-11-01T19:32:03.401Z,99.90
2018-11-01T19:34:39.683Z,99.90
2018-11-01T19:37:15.541Z,99.90
2018-11-01T19:39:51.402Z,99.90
2018-11-01T19:42:26.738Z,99.90
2018-11-01T19:45:02.404Z,99.90
2018-11-01T19:47:38.461Z,99.90
2018-11-01T19:50:15.301Z,99.90
2018-11-01T19:52:50.848Z,99.90
2018-11-01T19:55:26.198Z,99.90
2018-11-01T19:58:01.758Z,99.90
2018-11-01T20:00:37.340Z,99.90
2018-11-01T20:03:12.945Z,99.90
2018-11-01T20:05:48.441Z,99.90
2018-11-01T20:08:25.110Z,99.90
2018-11-01T20:11:00.861Z,99.90
2018-11-01T20:13:36.575Z,99.90
2018-11-01T20:16:12.151Z,99.90
2018-11-01T20:18:48.223Z,99.90
2018-11-01T20:21:23.605Z,99.90
2018-11-01T20:23:58.906Z,99.90
2018-11-01T20:26:34.810Z,99.90
2018-11-01T20:29:10.270Z,99.90
2018-11-01T20:31:46.266Z,99.90
2018-11-01T20:34:21.650Z,99.90
2018-11-01T20:36:57.406Z,99.90
2018-11-01T20:39:33.065Z,99.90
2018-11-01T20:42:08.804Z,99.90
2018-11-01T20:44:44.366Z,99.90
2018-11-01T20:47:19.668Z,99.90
2018-11-01T20:49:55.457Z,99.90
2018-11-01T20:52:30.982Z,99.90
2018-11-01T20:55:07.230Z,99.90
2018-11-01T20:57:43.198Z,99.90
2018-11-01T21:00:19.015Z,99.90
2018-11-01T21:02:54.829Z,99.90
2018-11-01T21:05:30.328Z,99.90
2018-11-01T21:08:06.319Z,99.90
2018-11-01T21:10:41.920Z,99.90
2018-11-01T21:13:17.581Z,99.90
2018-11-01T21:15:53.166Z,99.90
2018-11-01T21:18:29.019Z,99.90
2018-11-01T21:21:04.767Z,99.90
2018-11-01T21:23:40.202Z,99.90
2018-11-01T21:26:15.742Z,99.90
2018-11-01T21:28:51.339Z,99.90
2018-11-01T21:31:27.183Z,99.90
2018-11-01T21:34:02.574Z,99.90
2018-11-01T21:36:38.312Z,99.90
2018-11-01T21:39:13.961Z,99.90
2018-11-01T21:41:49.571Z,99.90
2018-11-01T21:44:25.177Z,99.90
2018-11-01T21:47:01.051Z,99.90
2018-11-01T21:49:36.566Z,99.90
2018-11-01T21:52:12.457Z,99.90
2018-11-01T21:54:47.837Z,99.90
2018-11-01T21:57:23.835Z,99.90
2018-11-01T21:59:59.641Z,99.90
2018-11-01T22:02:35.134Z,99.90
2018-11-01T22:05:11.382Z,99.90
2018-11-01T22:07:47.619Z,99.90
2018-11-01T22:10:23.451Z,99.90
2018-11-01T22:12:58.856Z,99.90
2018-11-01T22:15:34.377Z,99.90
2018-11-01T22:18:10.864Z,99.90
2018-11-01T22:20:46.687Z,99.90
2018-11-01T22:23:22.180Z,99.90
2018-11-01T22:25:57.835Z,99.90
2018-11-01T22:28:33.561Z,99.90
2018-11-01T22:31:09.191Z,99.90
2018-11-01T22:33:45.244Z,99.90
2018-11-01T22:36:20.380Z,99.90
2018-11-01T22:38:56.225Z,99.90
2018-11-01T22:41:31.902Z,99.90
2018-11-01T22:44:07.614Z,99.90
2018-11-01T22:46:43.461Z,99.90
2018-11-01T22:49:19.023Z,99.90
2018-11-01T22:51:54.697Z,99.90
2018-11-01T22:54:30.099Z,99.90
2018-11-01T22:57:05.611Z,99.90
2018-11-01T22:59:41.382Z,99.90
2018-11-01T23:02:17.120Z,99.90
2018-11-01T23:04:52.950Z,99.90
2018-11-01T23:07:28.429Z,99.90
2018-11-01T23:10:05.526Z,99.90
2018-11-01T23:12:40.793Z,99.90
2018-11-01T23:15:16.420Z,99.90
2018-11-01T23:17:52.190Z,99.90
2018-11-01T23:20:27.621Z,99.90
2018-11-01T23:23:03.281Z,99.90
2018-11-01T23:25:39.227Z,99.90
2018-11-01T23:28:14.797Z,99.90
2018-11-01T23:30:50.506Z,99.90
2018-11-01T23:33:25.921Z,99.90
2018-11-01T23:36:03.229Z,99.90
2018-11-01T23:38:44.034Z,99.90
2018-11-01T23:41:24.622Z,99.90
2018-11-01T23:44:05.076Z,99.90
2018-11-01T23:46:45.660Z,99.90
2018-11-01T23:49:23.335Z,99.90
2018-11-01T23:51:58.984Z,99.90
2018-11-01T23:54:34.526Z,99.90
2018-11-01T23:57:10.296Z,99.90
2018-11-01T23:59:45.937Z,99.90
